Time;durP1;ratioP1;P1;durP2;ratioP2;P2;SDS_P1;SDS_P2;PMS_P1;PMS_P2;Temp;Humidity;BMP_temperature;BMP_pressure;BME280_temperature;BME280_humidity;BME280_pressure;Samples;Min_cycle;Max_cycle;Signal;HPM_P1;HPM_P2
2023/09/05 00:01:22;;;;;;;16.73;15.03;;;20.00;99.90;;;;;;5130972;27;20502;-86
2023/09/05 00:03:50;;;;;;;13.53;12.27;;;19.90;99.90;;;;;;5134447;27;20456;-86
2023/09/05 00:06:20;;;;;;;12.40;11.20;;;19.90;99.90;;;;;;5134666;27;20475;-86
2023/09/05 00:08:47;;;;;;;9.30;8.40;;;19.90;99.90;;;;;;5134029;27;20475;-86
2023/09/05 00:11:16;;;;;;;9.10;8.40;;;19.90;99.90;;;;;;5134173;27;20471;-84
2023/09/05 00:13:44;;;;;;;9.80;8.83;;;19.90;99.90;;;;;;5120413;27;20464;-85
2023/09/05 00:16:12;;;;;;;7.90;7.13;;;19.90;99.90;;;;;;5103078;27;20468;-86
2023/09/05 00:18:42;;;;;;;8.33;7.73;;;19.90;99.90;;;;;;5122567;27;20464;-86
2023/09/05 00:21:24;;;;;;;7.10;6.50;;;19.90;99.90;;;;;;5135269;27;20475;-85
2023/09/05 00:23:51;;;;;;;7.77;7.07;;;19.90;99.90;;;;;;5124869;27;20830;-86
2023/09/05 00:26:18;;;;;;;7.00;6.40;;;19.90;99.90;;;;;;5134694;27;20491;-85
2023/09/05 00:28:50;;;;;;;7.30;6.70;;;19.80;99.90;;;;;;5133227;27;20463;-85
2023/09/05 00:31:20;;;;;;;7.00;6.40;;;19.80;99.90;;;;;;5134261;27;20528;-87
2023/09/05 00:33:57;;;;;;;;;;;;;;;;;;;;;
2023/09/05 00:36:26;;;;;;;6.90;6.30;;;19.80;99.90;;;;;;5103421;27;20477;-86
2023/09/05 00:38:53;;;;;;;60.50;51.00;;;19.80;99.90;;;;;;5131600;27;20528;-85
2023/09/05 00:41:21;;;;;;;42.30;37.70;;;19.80;99.90;;;;;;5133928;27;20851;-85
2023/09/05 00:43:49;;;;;;;26.97;24.10;;;19.90;99.90;;;;;;5133913;27;20491;-83
2023/09/05 00:46:19;;;;;;;16.13;14.53;;;19.90;99.90;;;;;;5134365;27;20464;-85
2023/09/05 00:48:48;;;;;;;11.53;10.43;;;19.90;99.90;;;;;;5134192;27;20506;-85
2023/09/05 00:51:18;;;;;;;9.07;8.27;;;19.90;99.90;;;;;;5134589;27;20486;-85
2023/09/05 00:53:49;;;;;;;7.27;6.67;;;19.90;99.90;;;;;;5134141;28;20546;-85
2023/09/05 00:56:16;;;;;;;9.80;8.90;;;19.90;99.90;;;;;;5133934;27;20527;-85
2023/09/05 00:58:43;;;;;;;7.60;6.60;;;19.90;99.90;;;;;;5134632;28;20495;-86
2023/09/05 01:01:10;;;;;;;7.47;6.87;;;19.90;99.90;;;;;;5134322;28;20524;-86
2023/09/05 01:03:37;;;;;;;7.67;6.93;;;19.90;99.90;;;;;;5134243;28;20516;-86
2023/09/05 01:06:09;;;;;;;6.70;6.10;;;19.90;99.90;;;;;;5112908;28;20488;-86
2023/09/05 01:08:44;;;;;;;6.57;6.00;;;19.90;99.90;;;;;;5132275;27;20961;-86
2023/09/05 01:11:17;;;;;;;6.80;6.30;;;19.90;99.90;;;;;;5137714;27;21012;-83
2023/09/05 01:13:44;;;;;;;7.60;6.90;;;19.90;99.90;;;;;;5138721;27;20498;-86
2023/09/05 01:16:10;;;;;;;7.33;6.67;;;19.80;99.90;;;;;;5137962;27;20524;-86
2023/09/05 01:18:40;;;;;;;6.60;6.00;;;19.90;99.90;;;;;;5138513;27;20505;-85
2023/09/05 01:21:16;;;;;;;6.63;6.10;;;19.80;99.90;;;;;;5134447;27;20467;-83
2023/09/05 01:23:47;;;;;;;6.40;5.83;;;19.80;99.90;;;;;;5137991;27;20471;-86
2023/09/05 01:26:15;;;;;;;5.60;5.10;;;19.80;99.90;;;;;;5138146;27;20941;-86
2023/09/05 01:28:44;;;;;;;5.50;5.03;;;19.80;99.90;;;;;;5137867;27;20992;-86
2023/09/05 01:31:12;;;;;;;6.90;6.30;;;19.90;99.90;;;;;;5138023;27;20531;-86
2023/09/05 01:33:41;;;;;;;7.00;6.37;;;19.80;99.90;;;;;;5138152;27;20467;-86
2023/09/05 01:36:11;;;;;;;5.90;5.40;;;19.90;99.90;;;;;;5137466;27;20532;-85
2023/09/05 01:38:38;;;;;;;6.97;6.47;;;19.90;99.90;;;;;;5138203;27;20463;-86
2023/09/05 01:41:05;;;;;;;6.10;5.60;;;19.90;99.90;;;;;;5137543;27;20482;-83
2023/09/05 01:43:33;;;;;;;7.37;6.57;;;19.90;99.90;;;;;;5137876;27;20546;-83
2023/09/05 01:46:00;;;;;;;6.47;5.70;;;19.90;99.90;;;;;;5137203;27;20518;-86
2023/09/05 01:48:27;;;;;;;6.60;6.10;;;19.80;99.90;;;;;;5138076;27;20498;-83
2023/09/05 01:50:54;;;;;;;6.20;5.70;;;19.80;99.90;;;;;;5136781;27;20555;-83
2023/09/05 01:53:21;;;;;;;5.87;5.47;;;19.80;99.90;;;;;;5137538;27;20467;-84
2023/09/05 01:56:05;;;;;;;5.70;5.30;;;19.80;99.90;;;;;;5126715;27;20547;-86
2023/09/05 01:58:33;;;;;;;5.57;5.07;;;19.80;99.90;;;;;;5137712;27;20502;-84
2023/09/05 02:01:03;;;;;;;4.73;4.40;;;19.80;99.90;;;;;;5137708;27;20467;-84
2023/09/05 02:03:30;;;;;;;4.57;4.27;;;19.80;99.90;;;;;;5137204;27;20471;-84
2023/09/05 02:05:57;;;;;;;5.43;5.03;;;19.80;99.90;;;;;;5137909;27;20492;-83
2023/09/05 02:08:24;;;;;;;5.17;4.77;;;19.80;99.90;;;;;;5141352;27;21021;-84
2023/09/05 02:10:51;;;;;;;6.00;5.50;;;19.80;99.90;;;;;;5138596;27;20463;-86
2023/09/05 02:13:18;;;;;;;5.60;5.20;;;19.70;99.90;;;;;;5137272;27;20467;-86
2023/09/05 02:15:47;;;;;;;5.87;5.40;;;19.70;99.90;;;;;;5136763;27;20478;-86
2023/09/05 02:18:17;;;;;;;6.63;6.03;;;19.70;99.90;;;;;;5136574;27;20547;-84
2023/09/05 02:20:43;;;;;;;6.97;6.27;;;19.70;99.90;;;;;;5136670;27;20774;-86
2023/09/05 02:23:10;;;;;;;5.97;5.57;;;19.70;99.90;;;;;;5137107;27;20475;-84
2023/09/05 02:25:38;;;;;;;5.70;5.20;;;19.70;99.90;;;;;;5136339;27;20475;-84
2023/09/05 02:28:05;;;;;;;5.90;5.37;;;19.70;99.90;;;;;;5127798;27;20475;-86
2023/09/05 02:30:32;;;;;;;5.60;5.10;;;19.70;99.90;;;;;;5136472;27;20886;-85
2023/09/05 02:33:08;;;;;;;4.67;4.37;;;19.70;99.90;;;;;;5137136;27;20531;-86
2023/09/05 02:35:36;;;;;;;5.97;5.47;;;19.70;99.90;;;;;;5136110;27;20519;-86
2023/09/05 02:38:06;;;;;;;5.60;5.10;;;19.70;99.90;;;;;;5136867;27;20463;-84
2023/09/05 02:40:33;;;;;;;5.57;5.03;;;19.70;99.90;;;;;;5136027;27;20487;-85
2023/09/05 02:43:01;;;;;;;5.00;4.70;;;19.70;99.90;;;;;;5136991;27;20479;-86
2023/09/05 02:45:28;;;;;;;5.30;4.90;;;19.70;99.90;;;;;;5136655;27;20477;-86
2023/09/05 02:47:56;;;;;;;4.50;4.10;;;19.70;99.90;;;;;;5135607;27;20443;-84
2023/09/05 02:50:24;;;;;;;6.40;5.80;;;19.70;99.90;;;;;;5136502;27;20467;-86
2023/09/05 02:52:51;;;;;;;5.10;4.70;;;19.70;99.90;;;;;;5135539;27;20815;-84
2023/09/05 02:55:19;;;;;;;6.57;4.53;;;19.70;99.90;;;;;;5135959;27;20472;-85
2023/09/05 02:57:45;;;;;;;4.37;4.07;;;19.70;99.90;;;;;;5136607;27;20499;-83
2023/09/05 03:00:19;;;;;;;5.70;5.17;;;19.70;99.90;;;;;;5136545;27;20902;-84
2023/09/05 03:02:46;;;;;;;4.93;4.50;;;19.70;99.90;;;;;;5135297;27;20976;-84
2023/09/05 03:05:14;;;;;;;4.53;4.13;;;19.70;99.90;;;;;;5120395;27;20568;-83
2023/09/05 03:07:42;;;;;;;5.40;5.00;;;19.70;99.90;;;;;;5123842;27;21028;-83
2023/09/05 03:10:09;;;;;;;5.20;4.80;;;19.70;99.90;;;;;;5136048;27;20483;-84
2023/09/05 03:12:36;;;;;;;5.80;5.33;;;19.70;99.90;;;;;;5136334;27;20853;-83
2023/09/05 03:15:04;;;;;;;4.73;4.43;;;19.60;99.90;;;;;;5135449;27;20452;-86
2023/09/05 03:17:31;;;;;;;5.53;5.07;;;19.60;99.90;;;;;;5136175;27;20468;-86
2023/09/05 03:19:59;;;;;;;5.07;4.67;;;19.60;99.90;;;;;;5135465;27;20468;-85
2023/09/05 03:22:26;;;;;;;5.20;4.60;;;19.60;99.90;;;;;;5136337;27;20471;-83
2023/09/05 03:24:54;;;;;;;5.10;4.70;;;19.50;99.90;;;;;;5135641;27;20471;-84
2023/09/05 03:27:21;;;;;;;5.23;4.83;;;19.50;99.90;;;;;;5136133;27;20475;-86
2023/09/05 03:29:48;;;;;;;5.30;4.80;;;19.50;99.90;;;;;;5135600;27;20968;-85
2023/09/05 03:32:15;;;;;;;5.60;5.20;;;19.50;99.90;;;;;;5137907;27;21016;-86
2023/09/05 03:34:48;;;;;;;5.37;4.97;;;19.50;99.90;;;;;;5135998;27;20467;-84
2023/09/05 03:37:16;;;;;;;5.30;4.90;;;19.50;99.90;;;;;;5136261;27;20900;-83
2023/09/05 03:39:44;;;;;;;5.63;5.13;;;19.40;99.90;;;;;;5135716;27;20956;-84
2023/09/05 03:42:12;;;;;;;4.83;4.43;;;19.40;99.90;;;;;;5135876;27;21038;-83
2023/09/05 03:44:39;;;;;;;5.90;5.40;;;19.40;99.90;;;;;;5135934;27;20532;-86
2023/09/05 03:47:08;;;;;;;5.77;5.27;;;19.40;99.90;;;;;;5135412;27;20452;-85
2023/09/05 03:49:37;;;;;;;5.37;4.90;;;19.40;99.90;;;;;;5135987;27;20952;-86
2023/09/05 03:52:04;;;;;;;5.10;4.60;;;19.40;99.90;;;;;;5134719;27;20982;-85
2023/09/05 03:54:35;;;;;;;5.27;4.77;;;19.50;99.90;;;;;;5135385;27;20470;-83
2023/09/05 03:57:02;;;;;;;6.50;5.90;;;19.40;99.90;;;;;;5135448;27;20973;-86
2023/09/05 03:59:30;;;;;;;5.17;4.77;;;19.40;99.90;;;;;;5135628;27;20471;-83
2023/09/05 04:01:57;;;;;;;5.43;5.00;;;19.40;99.90;;;;;;5134722;27;20527;-84
2023/09/05 04:04:24;;;;;;;4.80;4.43;;;19.30;99.90;;;;;;5134803;27;20467;-84
2023/09/05 04:06:51;;;;;;;4.90;4.50;;;19.40;99.90;;;;;;5134719;27;20980;-85
2023/09/05 04:09:18;;;;;;;7.63;4.33;;;19.40;99.90;;;;;;5135370;27;20459;-86
2023/09/05 04:11:46;;;;;;;5.40;4.90;;;19.40;99.90;;;;;;5134152;27;20552;-86
2023/09/05 04:14:13;;;;;;;5.60;5.20;;;19.40;99.90;;;;;;5134875;27;20482;-86
2023/09/05 04:16:43;;;;;;;5.57;5.17;;;19.40;99.90;;;;;;5135179;27;21026;-86
2023/09/05 04:19:10;;;;;;;8.13;5.60;;;19.40;99.90;;;;;;5134013;27;20440;-86
2023/09/05 04:21:39;;;;;;;5.80;5.30;;;19.40;99.90;;;;;;5134798;27;20859;-84
2023/09/05 04:24:06;;;;;;;5.30;4.80;;;19.40;99.90;;;;;;5134255;27;20498;-86
2023/09/05 04:26:34;;;;;;;6.03;5.53;;;19.40;99.90;;;;;;5135411;27;20464;-83
2023/09/05 04:29:01;;;;;;;5.30;4.90;;;19.30;99.90;;;;;;5134420;27;20471;-84
2023/09/05 04:31:28;;;;;;;5.77;5.27;;;19.40;99.90;;;;;;5137087;27;20455;-86
2023/09/05 04:33:56;;;;;;;8.27;6.10;;;19.30;99.90;;;;;;5134111;27;20552;-84
2023/09/05 04:36:38;;;;;;;5.77;5.30;;;19.30;99.90;;;;;;5135191;27;20529;-86
2023/09/05 04:39:05;;;;;;;6.40;5.90;;;19.30;99.90;;;;;;5131850;27;20467;-84
2023/09/05 04:41:32;;;;;;;8.30;6.67;;;19.30;99.90;;;;;;5132827;27;20451;-83
2023/09/05 04:44:00;;;;;;;6.17;5.50;;;19.30;99.90;;;;;;5133983;27;20468;-86
2023/09/05 04:46:31;;;;;;;5.70;5.20;;;19.30;99.90;;;;;;5134574;27;20847;-83
2023/09/05 04:49:03;;;;;;;6.80;5.77;;;19.30;99.90;;;;;;5134349;27;20467;-85
2023/09/05 04:51:29;;;;;;;6.80;6.20;;;19.30;99.90;;;;;;5134048;27;20529;-84
2023/09/05 04:54:16;;;;;;;5.00;4.60;;;19.30;99.90;;;;;;5123082;27;20985;-84
2023/09/05 04:56:43;;;;;;;5.60;5.20;;;19.30;99.90;;;;;;5134120;28;20567;-86
2023/09/05 04:59:10;;;;;;;4.37;4.07;;;19.30;99.90;;;;;;5134480;28;20487;-83
2023/09/05 05:01:40;;;;;;;5.37;4.97;;;19.30;99.90;;;;;;5133313;28;20491;-85
2023/09/05 05:04:08;;;;;;;4.97;4.57;;;19.40;99.90;;;;;;5134061;28;20462;-83
2023/09/05 05:06:38;;;;;;;5.03;4.67;;;19.40;99.90;;;;;;5133564;28;20952;-86
2023/09/05 05:09:07;;;;;;;8.13;7.33;;;19.40;99.90;;;;;;5133758;28;20451;-86
2023/09/05 05:11:37;;;;;;;6.73;5.90;;;19.40;99.90;;;;;;5134852;28;20469;-86
2023/09/05 05:14:04;;;;;;;9.30;7.10;;;19.30;99.90;;;;;;5133337;28;20475;-86
2023/09/05 05:16:31;;;;;;;6.67;5.80;;;19.40;99.90;;;;;;5134394;28;20487;-83
2023/09/05 05:19:00;;;;;;;5.87;5.37;;;19.40;99.90;;;;;;5133835;28;20471;-85
2023/09/05 05:21:29;;;;;;;6.17;5.67;;;19.30;99.90;;;;;;5134614;28;20464;-84
2023/09/05 05:23:59;;;;;;;6.60;5.77;;;19.40;99.90;;;;;;5120652;28;20478;-85
2023/09/05 05:26:32;;;;;;;6.37;5.37;;;19.40;99.90;;;;;;5119337;28;20534;-83
2023/09/05 05:29:02;;;;;;;5.93;5.43;;;19.40;99.90;;;;;;5134303;28;20459;-85
2023/09/05 05:31:29;;;;;;;5.10;4.60;;;19.50;99.90;;;;;;5134712;28;20480;-84
2023/09/05 05:33:57;;;;;;;7.40;6.70;;;19.50;99.90;;;;;;5133530;28;20538;-85
2023/09/05 05:36:24;;;;;;;5.57;4.93;;;19.50;99.90;;;;;;5134989;28;20516;-85
2023/09/05 05:38:55;;;;;;;5.80;5.13;;;19.50;99.90;;;;;;5134684;28;20463;-86
2023/09/05 05:41:26;;;;;;;7.50;6.00;;;19.60;99.90;;;;;;5134015;28;20447;-84
2023/09/05 05:43:58;;;;;;;6.60;5.97;;;19.60;99.90;;;;;;5124206;28;20801;-84
2023/09/05 05:46:30;;;;;;;8.93;7.80;;;19.60;99.90;;;;;;5134821;28;20447;-85
2023/09/05 05:49:02;;;;;;;7.87;7.07;;;19.70;99.90;;;;;;5134582;28;20492;-86
2023/09/05 05:51:35;;;;;;;7.17;6.50;;;19.70;99.90;;;;;;5124139;27;20467;-86
2023/09/05 05:54:04;;;;;;;4.47;4.07;;;19.70;99.90;;;;;;5137421;27;20456;-84
2023/09/05 05:56:30;;;;;;;6.47;5.60;;;19.70;99.90;;;;;;5136302;27;20475;-83
2023/09/05 05:58:57;;;;;;;6.30;5.80;;;19.80;99.90;;;;;;5136919;27;20488;-83
2023/09/05 06:01:24;;;;;;;5.63;4.83;;;19.80;99.90;;;;;;5137191;27;20547;-84
2023/09/05 06:03:58;;;;;;;5.73;5.23;;;19.80;99.90;;;;;;5137810;27;20961;-86
2023/09/05 06:06:25;;;;;;;6.37;5.87;;;19.90;99.90;;;;;;5136921;27;20474;-86
2023/09/05 06:08:56;;;;;;;6.17;5.60;;;19.90;99.90;;;;;;5137947;27;20460;-85
2023/09/05 06:11:24;;;;;;;5.23;4.80;;;19.90;99.90;;;;;;5136950;27;20522;-84
2023/09/05 06:13:52;;;;;;;5.23;4.83;;;19.90;99.90;;;;;;5136622;27;20487;-84
2023/09/05 06:16:20;;;;;;;5.33;4.83;;;20.00;99.90;;;;;;5136636;27;20487;-84
2023/09/05 06:18:53;;;;;;;5.83;4.83;;;20.00;99.90;;;;;;5136924;27;20483;-84
2023/09/05 06:21:21;;;;;;;5.50;5.03;;;20.10;99.90;;;;;;5136374;27;20467;-84
2023/09/05 06:23:48;;;;;;;4.27;3.97;;;20.10;99.90;;;;;;5137403;27;20789;-85
2023/09/05 06:26:17;;;;;;;6.40;5.80;;;20.20;99.90;;;;;;5136149;27;20853;-84
2023/09/05 06:28:48;;;;;;;6.93;6.33;;;20.30;99.90;;;;;;5136998;27;20850;-86
2023/09/05 06:31:20;;;;;;;6.23;5.63;;;20.30;99.90;;;;;;5136664;27;20850;-84
2023/09/05 06:36:41;;;;;;;6.13;5.00;;;20.40;99.90;;;;;;5097460;27;20459;-85
2023/09/05 06:39:09;;;;;;;5.60;4.87;;;20.50;99.90;;;;;;5123036;27;20559;-86
2023/09/05 06:41:45;;;;;;;6.73;6.10;;;20.50;99.90;;;;;;5135354;27;20455;-85
2023/09/05 06:45:07;;;;;;;9.83;6.27;;;20.50;99.90;;;;;;5132581;27;20459;-86
2023/09/05 06:47:40;;;;;;;6.43;5.83;;;20.60;99.90;;;;;;5062228;28;20463;-84
2023/09/05 06:50:07;;;;;;;7.97;7.27;;;20.60;99.90;;;;;;5085081;27;20464;-84
2023/09/05 06:52:37;;;;;;;7.00;6.40;;;20.60;99.90;;;;;;5113367;27;20468;-86
2023/09/05 06:55:15;;;;;;;8.80;5.30;;;20.60;99.90;;;;;;5134734;27;20667;-83
2023/09/05 07:01:19;;;;;;;4.77;4.33;;;20.70;99.90;;;;;;5115123;27;20472;-82
2023/09/05 07:04:03;;;;;;;6.70;4.97;;;20.80;99.90;;;;;;5124234;27;20976;-85
2023/09/05 07:06:32;;;;;;;5.30;4.90;;;20.80;99.90;;;;;;5109139;27;20472;-86
2023/09/05 07:11:45;;;;;;;6.40;4.23;;;20.90;99.90;;;;;;5107021;27;20460;-86
2023/09/05 07:14:17;;;;;;;4.93;4.53;;;21.00;99.90;;;;;;5123510;27;20957;-86
2023/09/05 07:16:46;;;;;;;7.23;5.23;;;21.10;99.90;;;;;;5122141;27;20524;-87
2023/09/05 07:19:16;;;;;;;4.77;4.27;;;21.20;99.90;;;;;;5123125;27;20869;-83
2023/09/05 07:21:45;;;;;;;4.70;4.30;;;21.20;99.90;;;;;;5136072;27;20949;-84
2023/09/05 07:24:14;;;;;;;5.50;4.17;;;21.30;99.90;;;;;;5106387;27;20476;-86
2023/09/05 07:26:45;;;;;;;4.00;3.60;;;21.30;99.90;;;;;;5136995;27;20850;-83
2023/09/05 07:29:15;;;;;;;4.03;3.73;;;21.40;99.90;;;;;;5124163;27;20953;-85
2023/09/05 07:31:43;;;;;;;4.30;3.80;;;21.50;99.90;;;;;;5119449;27;20948;-83
2023/09/05 07:34:12;;;;;;;5.77;5.37;;;21.50;99.90;;;;;;5135706;27;20464;-88
2023/09/05 07:36:39;;;;;;;4.20;3.90;;;21.60;99.90;;;;;;5135525;27;20487;-85
2023/09/05 07:39:10;;;;;;;4.10;3.70;;;21.60;99.90;;;;;;5135935;27;21129;-83
2023/09/05 07:41:38;;;;;;;4.33;3.93;;;21.70;99.90;;;;;;5135691;27;20515;-83
2023/09/05 07:44:05;;;;;;;4.23;3.90;;;21.80;99.90;;;;;;5135823;27;20476;-83
2023/09/05 07:46:32;;;;;;;4.77;4.30;;;21.80;99.90;;;;;;5135417;27;20471;-86
2023/09/05 07:49:00;;;;;;;4.53;4.03;;;21.80;99.90;;;;;;5136601;27;20553;-83
2023/09/05 07:51:29;;;;;;;4.67;4.27;;;21.80;99.90;;;;;;5135338;27;20775;-83
2023/09/05 07:57:17;;;;;;;4.63;4.23;;;21.90;99.90;;;;;;5091527;27;20448;-87
2023/09/05 07:59:48;;;;;;;4.23;3.90;;;22.00;99.90;;;;;;5135419;27;20465;-83
2023/09/05 08:02:15;;;;;;;4.90;4.20;;;22.00;99.90;;;;;;5135075;27;20460;-85
2023/09/05 08:04:47;;;;;;;5.23;4.70;;;22.00;99.90;;;;;;5117699;22;20531;-86
2023/09/05 08:07:17;;;;;;;5.00;4.40;;;22.00;99.90;;;;;;5075514;28;20473;-83
2023/09/05 08:10:14;;;;;;;14.63;10.87;;;22.10;99.90;;;;;;5074326;28;20559;-85
2023/09/05 08:12:41;;;;;;;9.30;8.43;;;22.10;99.90;;;;;;5065467;28;20573;-85
2023/09/05 08:15:14;;;;;;;9.17;7.30;;;22.20;99.90;;;;;;5071993;28;20463;-85
2023/09/05 08:17:41;;;;;;;8.20;7.50;;;22.20;99.90;;;;;;5083272;28;20458;-85
2023/09/05 08:20:12;;;;;;;8.07;7.43;;;22.30;99.90;;;;;;5092049;28;20480;-85
2023/09/05 08:22:46;;;;;;;7.37;6.27;;;22.40;99.90;;;;;;5084039;28;20461;-86
2023/09/05 08:25:15;;;;;;;7.23;6.63;;;22.40;99.90;;;;;;5093613;28;20467;-85
2023/09/05 08:27:42;;;;;;;6.70;6.10;;;22.50;99.90;;;;;;5093618;28;20915;-85
2023/09/05 08:33:01;;;;;;;5.43;4.97;;;22.60;99.90;;;;;;5077955;28;20481;-83
2023/09/05 08:35:28;;;;;;;6.00;5.40;;;22.60;99.90;;;;;;5093641;28;20469;-84
2023/09/05 08:38:04;;;;;;;7.90;5.40;;;22.70;99.90;;;;;;5068853;28;20472;-85
2023/09/05 08:41:11;;;;;;;6.57;5.97;;;22.70;99.90;;;;;;5092208;28;20477;-85
2023/09/05 08:46:23;;;;;;;7.63;6.87;;;22.80;99.90;;;;;;5091071;28;20530;-83
2023/09/05 08:52:09;;;;;;;9.73;6.90;;;22.80;99.90;;;;;;5062309;28;20475;-85
2023/09/05 08:54:38;;;;;;;5.10;4.70;;;22.90;99.90;;;;;;5079092;28;20546;-85
2023/09/05 08:57:17;;;;;;;4.10;3.80;;;23.00;99.90;;;;;;5093312;28;20587;-84
2023/09/05 08:59:44;;;;;;;6.53;5.93;;;23.00;99.90;;;;;;5067888;28;20499;-86
2023/09/05 09:02:22;;;;;;;6.83;6.23;;;23.00;99.90;;;;;;5093429;28;20495;-84
2023/09/05 09:04:56;;;;;;;5.87;5.43;;;23.10;99.90;;;;;;5092646;28;20469;-84
2023/09/05 09:10:26;;;;;;;7.33;6.73;;;23.20;99.90;;;;;;5080387;28;20511;-86
2023/09/05 09:13:16;;;;;;;3.77;3.13;;;23.20;99.90;;;;;;5075630;28;20811;-84
2023/09/05 09:15:49;;;;;;;6.10;5.50;;;23.20;99.90;;;;;;5303254;22;20508;-84
2023/09/05 09:18:26;;;;;;;3.30;3.00;;;23.30;99.90;;;;;;5105913;28;20479;-85
2023/09/05 09:20:59;;;;;;;3.30;3.07;;;23.30;99.90;;;;;;5114378;28;20486;-86
2023/09/05 09:23:33;;;;;;;5.83;3.77;;;23.40;99.90;;;;;;5099537;28;20476;-86
2023/09/05 09:26:02;;;;;;;4.87;4.47;;;23.60;99.90;;;;;;5069290;28;20804;-86
2023/09/05 09:28:32;;;;;;;6.00;5.50;;;23.60;99.90;;;;;;5096552;28;20496;-87
2023/09/05 09:31:01;;;;;;;3.40;3.07;;;23.70;99.90;;;;;;5096010;28;20461;-86
2023/09/05 09:33:31;;;;;;;5.67;5.17;;;23.70;99.90;;;;;;5096605;28;20486;-86
2023/09/05 09:36:13;;;;;;;7.17;5.00;;;23.70;99.90;;;;;;5068033;28;20812;-86
2023/09/05 09:38:43;;;;;;;5.10;4.70;;;23.80;99.90;;;;;;5097009;28;20507;-86
2023/09/05 09:41:19;;;;;;;3.53;3.23;;;23.80;99.90;;;;;;5095489;28;20556;-86
2023/09/05 09:46:39;;;;;;;7.83;5.60;;;24.00;99.90;;;;;;5087910;28;20480;-86
2023/09/05 09:49:18;;;;;;;3.03;2.83;;;24.10;99.90;;;;;;5082418;28;20562;-86
2023/09/05 09:51:46;;;;;;;5.10;4.60;;;24.10;99.90;;;;;;5065446;28;20559;-84
2023/09/05 09:54:17;;;;;;;2.93;2.73;;;24.20;99.90;;;;;;5087560;28;20462;-84
2023/09/05 09:56:50;;;;;;;2.60;2.40;;;24.20;99.90;;;;;;5096356;28;20474;-84
2023/09/05 09:59:19;;;;;;;3.40;3.10;;;24.30;99.90;;;;;;5096584;28;20471;-86
2023/09/05 10:01:47;;;;;;;4.40;4.03;;;24.50;99.90;;;;;;5097331;28;20461;-86
2023/09/05 10:04:24;;;;;;;5.13;4.67;;;24.50;99.90;;;;;;5097143;28;20470;-86
2023/09/05 10:06:56;;;;;;;3.30;3.00;;;24.50;99.90;;;;;;5097379;28;20469;-86
2023/09/05 10:09:23;;;;;;;2.57;2.23;;;24.50;99.90;;;;;;5068575;28;20498;-84
2023/09/05 10:11:55;;;;;;;4.13;3.70;;;24.60;99.90;;;;;;5070619;28;20527;-86
2023/09/05 10:14:23;;;;;;;5.50;4.97;;;24.70;99.90;;;;;;5094919;28;20473;-86
2023/09/05 10:16:54;;;;;;;4.03;3.73;;;24.70;99.90;;;;;;5096839;28;21034;-84
2023/09/05 10:19:25;;;;;;;4.17;3.77;;;24.70;99.90;;;;;;5094392;28;20469;-86
2023/09/05 10:22:00;;;;;;;4.47;4.00;;;24.70;99.90;;;;;;5084949;28;20473;-84
2023/09/05 10:24:29;;;;;;;5.77;4.00;;;24.80;99.90;;;;;;5158066;22;20480;-83
2023/09/05 10:27:01;;;;;;;5.47;5.07;;;24.80;99.90;;;;;;5117395;28;20456;-83
2023/09/05 10:29:35;;;;;;;5.40;5.00;;;24.80;99.90;;;;;;5098418;28;20579;-83
2023/09/05 10:32:04;;;;;;;4.67;4.10;;;24.80;99.90;;;;;;5088754;28;20501;-85
2023/09/05 10:35:10;;;;;;;4.20;3.30;;;24.80;99.90;;;;;;5114573;28;20533;-86
2023/09/05 10:38:32;;;;;;;3.70;3.40;;;24.80;99.90;;;;;;5115527;28;20793;-86
2023/09/05 10:41:03;;;;;;;6.10;5.60;;;24.80;99.90;;;;;;5105383;28;20472;-86
2023/09/05 10:43:32;;;;;;;6.33;4.43;;;24.80;99.90;;;;;;5083958;28;20508;-84
2023/09/05 10:46:19;;;;;;;3.93;3.63;;;24.80;99.90;;;;;;5113510;28;20461;-85
2023/09/05 10:48:49;;;;;;;4.60;4.20;;;24.80;99.90;;;;;;5118766;28;20787;-84
2023/09/05 10:51:26;;;;;;;5.40;2.77;;;24.80;99.90;;;;;;5114780;28;20469;-85
2023/09/05 10:53:55;;;;;;;6.13;2.47;;;24.80;99.90;;;;;;5115928;28;21004;-85
2023/09/05 10:56:51;;;;;;;3.60;2.53;;;24.80;99.90;;;;;;5116803;28;20448;-84
2023/09/05 10:59:37;;;;;;;2.53;2.33;;;24.90;99.90;;;;;;5115534;28;20550;-85
2023/09/05 11:02:09;;;;;;;3.97;2.20;;;25.00;99.90;;;;;;5085916;28;20495;-84
2023/09/05 11:07:27;;;;;;;5.47;5.00;;;25.10;99.90;;;;;;5087542;28;20906;-83
2023/09/05 11:09:56;;;;;;;5.60;5.20;;;25.10;99.90;;;;;;5115983;28;20475;-83
2023/09/05 11:12:25;;;;;;;3.27;2.60;;;25.00;99.90;;;;;;5115883;28;20449;-84
2023/09/05 11:17:44;;;;;;;2.53;2.33;;;25.10;99.90;;;;;;5114582;28;20517;-85
2023/09/05 11:20:53;;;;;;;2.50;2.30;;;25.20;99.90;;;;;;5112665;28;20461;-85
2023/09/05 11:26:19;;;;;;;2.77;2.47;;;25.40;99.90;;;;;;5109303;22;20473;-85
2023/09/05 11:28:51;;;;;;;2.90;2.57;;;25.40;99.90;;;;;;5101851;28;20460;-85
2023/09/05 11:31:25;;;;;;;3.60;2.53;;;25.50;99.90;;;;;;5113255;28;20456;-85
2023/09/05 11:33:55;;;;;;;4.90;2.37;;;25.60;99.90;;;;;;5103175;28;20472;-84
2023/09/05 11:36:27;;;;;;;2.83;2.23;;;25.80;99.90;;;;;;5104999;28;21003;-84
2023/09/05 11:39:08;;;;;;;2.70;2.50;;;25.80;99.90;;;;;;5103899;28;20999;-85
2023/09/05 11:41:44;;;;;;;4.40;4.03;;;25.90;99.90;;;;;;5102163;28;20965;-86
2023/09/05 11:44:11;;;;;;;3.90;3.60;;;25.80;99.90;;;;;;5241547;22;20474;-85
2023/09/05 11:47:14;;;;;;;;;;;;;;;;;;;;;
2023/09/05 11:49:57;;;;;;;2.60;2.40;;;25.60;99.90;;;;;;5104759;28;20457;-86
2023/09/05 11:52:28;;;;;;;4.77;4.40;;;25.60;99.90;;;;;;5114418;28;20852;-86
2023/09/05 11:54:56;;;;;;;5.07;4.67;;;25.50;99.90;;;;;;5113557;28;20589;-86
2023/09/05 11:57:24;;;;;;;4.53;4.10;;;25.40;99.90;;;;;;5102701;28;20480;-86
2023/09/05 12:00:00;;;;;;;4.57;4.13;;;25.40;99.90;;;;;;5114774;28;20449;-86
2023/09/05 12:02:37;;;;;;;4.93;4.57;;;25.30;99.90;;;;;;5114739;28;20474;-86
2023/09/05 12:08:10;;;;;;;3.80;3.50;;;25.10;99.90;;;;;;5109049;28;20452;-86
2023/09/05 12:10:50;;;;;;;3.87;3.60;;;25.20;99.90;;;;;;5115717;28;20532;-85
2023/09/05 12:16:19;;;;;;;2.67;2.47;;;25.20;99.90;;;;;;5276905;22;20462;-86
2023/09/05 12:19:00;;;;;;;3.70;3.20;;;25.20;99.90;;;;;;5047736;28;20814;-86
2023/09/05 12:21:49;;;;;;;4.10;3.80;;;25.20;99.90;;;;;;5074688;28;20532;-86
2023/09/05 12:24:20;;;;;;;4.07;3.77;;;25.20;99.90;;;;;;5061564;28;20481;-86
2023/09/05 12:26:52;;;;;;;3.30;3.10;;;25.10;99.90;;;;;;5046634;28;20471;-86
2023/09/05 12:32:41;;;;;;;2.70;2.50;;;25.10;99.90;;;;;;5073120;28;20561;-84
2023/09/05 12:38:21;;;;;;;3.03;2.73;;;25.20;99.90;;;;;;5052105;28;20472;-84
2023/09/05 12:41:07;;;;;;;3.90;3.03;;;25.10;99.90;;;;;;5082254;28;20465;-83
2023/09/05 12:43:41;;;;;;;3.83;3.53;;;25.10;99.90;;;;;;5082354;28;20469;-84
2023/09/05 12:49:17;;;;;;;3.60;3.30;;;25.00;99.90;;;;;;5022173;28;20529;-85
2023/09/05 12:51:49;;;;;;;3.77;3.40;;;25.00;99.90;;;;;;5022455;28;20468;-83
2023/09/05 12:57:31;;;;;;;2.00;1.90;;;25.00;99.90;;;;;;5094087;28;20898;-84
2023/09/05 13:00:23;;;;;;;3.40;2.33;;;25.10;99.90;;;;;;5082214;28;20506;-84
2023/09/05 13:05:59;;;;;;;2.87;2.60;;;25.20;99.90;;;;;;5044383;28;20454;-84
2023/09/05 13:08:42;;;;;;;3.20;3.00;;;25.20;99.90;;;;;;5093351;28;20465;-85
2023/09/05 13:11:13;;;;;;;2.37;2.13;;;25.20;99.90;;;;;;5092789;28;20458;-85
2023/09/05 13:13:42;;;;;;;2.77;2.10;;;25.30;99.90;;;;;;5082775;28;20544;-85
2023/09/05 13:16:09;;;;;;;2.43;2.23;;;25.40;99.90;;;;;;5061293;28;20493;-85
2023/09/05 13:18:36;;;;;;;2.23;1.87;;;25.60;99.90;;;;;;5072864;28;20458;-84
2023/09/05 13:21:15;;;;;;;3.60;2.30;;;25.70;99.90;;;;;;5041673;28;20470;-84
2023/09/05 13:23:43;;;;;;;2.63;2.20;;;25.90;99.90;;;;;;5071095;28;20467;-83
2023/09/05 13:26:29;;;;;;;2.73;2.53;;;26.00;99.90;;;;;;5060514;28;20986;-84
2023/09/05 13:29:07;;;;;;;2.73;2.47;;;26.20;99.90;;;;;;5063305;28;20983;-84
2023/09/05 13:31:38;;;;;;;4.03;3.07;;;26.20;99.90;;;;;;5060328;28;20495;-84
2023/09/05 13:34:17;;;;;;;3.50;2.80;;;26.20;99.90;;;;;;5061939;28;20535;-83
2023/09/05 13:36:56;;;;;;;2.67;2.47;;;26.20;99.90;;;;;;5070747;28;20455;-85
2023/09/05 13:39:26;;;;;;;3.83;3.00;;;26.20;99.90;;;;;;5071710;28;20532;-85
2023/09/05 13:41:54;;;;;;;3.77;3.33;;;26.20;99.90;;;;;;5064745;28;20465;-85
2023/09/05 13:44:47;;;;;;;3.37;2.40;;;26.30;99.90;;;;;;5071713;28;20548;-85
2023/09/05 13:47:42;;;;;;;4.13;2.20;;;26.30;99.90;;;;;;5071458;28;20590;-85
2023/09/05 13:51:02;;;;;;;2.47;2.27;;;26.40;99.90;;;;;;5059998;28;20886;-85
2023/09/05 13:54:07;;;;;;;2.70;2.43;;;26.40;99.90;;;;;;5055898;28;20462;-86
2023/09/05 13:56:39;;;;;;;2.43;2.20;;;26.30;99.90;;;;;;5050901;28;20547;-84
2023/09/05 13:59:09;;;;;;;3.60;2.80;;;26.40;99.90;;;;;;5045860;28;20527;-83
2023/09/05 14:01:37;;;;;;;2.53;2.07;;;26.50;99.90;;;;;;5072325;28;20466;-84
2023/09/05 14:04:07;;;;;;;4.63;3.10;;;26.50;99.90;;;;;;5062268;28;20449;-86
2023/09/05 14:06:34;;;;;;;2.50;2.30;;;26.50;99.90;;;;;;5071512;28;20537;-84
2023/09/05 14:09:04;;;;;;;2.60;2.07;;;26.40;99.90;;;;;;5072591;28;20469;-85